Winchester, Virginia
Current Conditions -  °F | °C
As of 4:35 AM on Sunday 26 Oct 2014 (Local Time) from KOKV Reporting Station
Clear Clear  
Wind Chill: 59°   Ceiling: Unl
Heat Index: 59°   Visibility: 10mi
Dew Point: 25°   Wind: 9mph
Humidity: 27%   Direction: 310°NW
Pressure: 29.75"   Gusts: 18mph
Location:  39.18°N, 78.16°W
Report Text: KOKV 260835Z AUTO 31008G16KT 10SM CLR 15/M04 A2975 RMK AO2
Loading
Personal Weather Stations






























Interactive Weather Map
Tropical Storm Tracking
New forecast layout! Learn more

10-Day Weather Forecast

Advertisements
Track Severe Weather on mobile